Guilford Courthouse National, North Carolina
Current Conditions -  °F | °C
As of 7:54 AM on Sunday 23 Nov 2014 (Local Time) from KGSO Reporting Station
Overcast Overcast  
Wind Chill: 43°   Ceiling: 2300
Heat Index: 43°   Visibility: 7mi
Dew Point: 29°   Wind: 0mph
Humidity: 58%   Direction: NA
Pressure: 30.21"   Gusts: NA
Location:  36.1026°N, 79.8146°W
Report Text: KGSO 231254Z 00000KT 7SM FEW009 OVC023 06/M02 A3021 RMK AO2 SLP234 T00611017
Loading
Personal Weather Stations






























Interactive Weather Map New forecast layout! Learn more

10-Day Weather Forecast

Advertisements
Track Severe Weather on mobile